Time;durP1;ratioP1;P1;durP2;ratioP2;P2;SDS_P1;SDS_P2;PMS_P1;PMS_P2;Temp;Humidity;BMP_temperature;BMP_pressure;BME280_temperature;BME280_humidity;BME280_pressure;Samples;Min_cycle;Max_cycle;Signal;HPM_P1;HPM_P2
2022/04/04 00:01:19;;;;;;;;;;;;;;;;;;4976375;28;1130;-69
2022/04/04 00:03:44;;;;;;;;;;;;;;;;;;4978285;28;1419;-70
2022/04/04 00:06:09;;;;;;;;;;;;;;;;;;4976010;28;1240;-69
2022/04/04 00:08:35;;;;;;;;;;;;;;;;;;4981814;28;1501;-69
2022/04/04 00:11:00;;;;;;;;;;;;;;;;;;4982189;28;1639;-69
2022/04/04 00:13:27;;;;;;;;;;;;;;;;;;4977235;28;1272;-68
2022/04/04 00:15:52;;;;;;;;;;;;;;;;;;4992803;28;1591;-68
2022/04/04 00:18:17;;;;;;;;;;;;;;;;;;4987387;28;1898;-68
2022/04/04 00:20:42;;;;;;;;;;;;;;;;;;4982894;28;1371;-69
2022/04/04 00:23:12;;;;;;;;;;;;;;;;;;4984801;28;935;-69
2022/04/04 00:25:37;;;;;;;;;;;;;;;;;;4983986;28;1741;-69
2022/04/04 00:28:03;;;;;;;;;;;;;;;;;;4976853;28;1130;-69
2022/04/04 00:30:29;;;;;;;;;;;;;;;;;;4984647;28;1402;-68
2022/04/04 00:32:54;;;;;;;;;;;;;;;;;;4984848;28;1489;-69
2022/04/04 00:35:19;;;;;;;;;;;;;;;;;;4984385;28;1489;-70
2022/04/04 00:37:44;;;;;;;;;;;;;;;;;;4984941;28;1898;-70
2022/04/04 00:40:10;;;;;;;;;;;;;;;;;;4983115;28;1743;-69
2022/04/04 00:42:35;;;;;;;;;;;;;;;;;;4984988;28;1147;-69
2022/04/04 00:45:00;;;;;;;;;;;;;;;;;;4984205;28;895;-69
2022/04/04 00:47:25;;;;;;;;;;;;;;;;;;4976446;28;1772;-70
2022/04/04 00:49:51;;;;;;;;;;;;;;;;;;4984764;28;1145;-70
2022/04/04 00:52:16;;;;;;;;;;;;;;;;;;4984786;28;1370;-70
2022/04/04 00:54:41;;;;;;;;;;;;;;;;;;4984530;28;1006;-70
2022/04/04 00:57:07;;;;;;;;;;;;;;;;;;4983922;28;1954;-70
2022/04/04 00:59:33;;;;;;;;;;;;;;;;;;4975044;28;1875;-69
2022/04/04 01:01:58;;;;;;;;;;;;;;;;;;4984317;28;1093;-70
2022/04/04 01:04:23;;;;;;;;;;;;;;;;;;4983846;28;1339;-69
2022/04/04 01:06:48;;;;;;;;;;;;;;;;;;4984121;28;1260;-69
2022/04/04 01:09:14;;;;;;;;;;;;;;;;;;4983782;28;1653;-69
2022/04/04 01:11:58;;;;;;;;;;;;;;;;;;4976303;28;1259;-69
2022/04/04 01:14:23;;;;;;;;;;;;;;;;;;4983612;28;1713;-69
2022/04/04 01:16:49;;;;;;;;;;;;;;;;;;4976622;28;1240;-69
2022/04/04 01:19:14;;;;;;;;;;;;;;;;;;4984080;28;1954;-69
2022/04/04 01:21:39;;;;;;;;;;;;;;;;;;4983239;28;1482;-69
2022/04/04 01:24:05;;;;;;;;;;;;;;;;;;4982764;28;1685;-68
2022/04/04 01:26:30;;;;;;;;;;;;;;;;;;4975683;28;1275;-68
2022/04/04 01:28:56;;;;;;;;;;;;;;;;;;4984075;28;927;-69
2022/04/04 01:31:21;;;;;;;;;;;;;;;;;;4983663;28;1461;-68
2022/04/04 01:33:46;;;;;;;;;;;;;;;;;;4983878;28;864;-69
2022/04/04 01:36:12;;;;;;;;;;;;;;;;;;4983638;28;1408;-68
2022/04/04 01:38:37;;;;;;;;;;;;;;;;;;4981427;28;1969;-68
2022/04/04 01:41:02;;;;;;;;;;;;;;;;;;4977599;28;1206;-69
2022/04/04 01:43:27;;;;;;;;;;;;;;;;;;4974985;28;1633;-68
2022/04/04 01:48:37;;;;;;;;;;;;;;;;;;4983813;28;1478;-69
2022/04/04 01:51:03;;;;;;;;;;;;;;;;;;4985057;28;1373;-69
2022/04/04 01:53:29;;;;;;;;;;;;;;;;;;4980381;28;1494;-69
2022/04/04 01:55:56;;;;;;;;;;;;;;;;;;4975979;28;1358;-69
2022/04/04 01:58:23;;;;;;;;;;;;;;;;;;4973947;28;1899;-69
2022/04/04 02:00:48;;;;;;;;;;;;;;;;;;4982312;28;1414;-69
2022/04/04 02:03:13;;;;;;;;;;;;;;;;;;4983338;28;1003;-69
2022/04/04 02:05:39;;;;;;;;;;;;;;;;;;4974154;28;1633;-69
2022/04/04 02:08:04;;;;;;;;;;;;;;;;;;4977341;28;1416;-69
2022/04/04 02:10:29;;;;;;;;;;;;;;;;;;4985471;28;1248;-69
2022/04/04 02:12:54;;;;;;;;;;;;;;;;;;4977641;28;1642;-69
2022/04/04 02:15:19;;;;;;;;;;;;;;;;;;4982794;28;1256;-69
2022/04/04 02:17:45;;;;;;;;;;;;;;;;;;4983346;28;1914;-69
2022/04/04 02:20:10;;;;;;;;;;;;;;;;;;4983055;28;1374;-69
2022/04/04 02:22:35;;;;;;;;;;;;;;;;;;4983495;28;837;-69
2022/04/04 02:25:01;;;;;;;;;;;;;;;;;;4977546;28;1701;-69
2022/04/04 02:27:26;;;;;;;;;;;;;;;;;;4979695;28;1181;-69
2022/04/04 02:29:52;;;;;;;;;;;;;;;;;;4983032;28;859;-70
2022/04/04 02:32:17;;;;;;;;;;;;;;;;;;4982988;28;851;-70
2022/04/04 02:34:42;;;;;;;;;;;;;;;;;;4992961;28;1405;-70
2022/04/04 02:37:08;;;;;;;;;;;;;;;;;;4988717;28;1898;-69
2022/04/04 02:39:34;;;;;;;;;;;;;;;;;;4980929;28;1407;-69
2022/04/04 02:41:59;;;;;;;;;;;;;;;;;;4975090;28;1433;-69
2022/04/04 02:44:24;;;;;;;;;;;;;;;;;;4982726;28;1035;-69
2022/04/04 02:46:50;;;;;;;;;;;;;;;;;;4982813;28;1185;-69
2022/04/04 02:49:15;;;;;;;;;;;;;;;;;;4982948;28;1491;-69
2022/04/04 02:51:40;;;;;;;;;;;;;;;;;;4979197;28;1710;-69
2022/04/04 02:54:05;;;;;;;;;;;;;;;;;;4977566;28;1422;-69
2022/04/04 02:56:31;;;;;;;;;;;;;;;;;;4982342;28;1124;-69
2022/04/04 02:58:57;;;;;;;;;;;;;;;;;;4982579;28;1969;-69
2022/04/04 03:01:23;;;;;;;;;;;;;;;;;;4982827;28;814;-69
2022/04/04 03:03:48;;;;;;;;;;;;;;;;;;4982450;28;1308;-69
2022/04/04 03:06:14;;;;;;;;;;;;;;;;;;4975022;28;1685;-69
2022/04/04 03:08:39;;;;;;;;;;;;;;;;;;4979909;28;1367;-69
2022/04/04 03:11:04;;;;;;;;;;;;;;;;;;4975212;28;1473;-69
2022/04/04 03:13:29;;;;;;;;;;;;;;;;;;4982533;28;1034;-69
2022/04/04 03:15:54;;;;;;;;;;;;;;;;;;4981941;28;1271;-69
2022/04/04 03:18:20;;;;;;;;;;;;;;;;;;4982548;28;1989;-69
2022/04/04 03:20:45;;;;;;;;;;;;;;;;;;4978823;28;1666;-69
2022/04/04 03:23:10;;;;;;;;;;;;;;;;;;4981828;28;1202;-70
2022/04/04 03:25:36;;;;;;;;;;;;;;;;;;4982080;28;1192;-70
2022/04/04 03:28:01;;;;;;;;;;;;;;;;;;4982364;28;1570;-69
2022/04/04 03:30:27;;;;;;;;;;;;;;;;;;4982133;28;796;-69
2022/04/04 03:32:55;;;;;;;;;;;;;;;;;;4981996;28;1446;-69
2022/04/04 03:35:20;;;;;;;;;;;;;;;;;;4981206;28;1623;-69
2022/04/04 03:37:47;;;;;;;;;;;;;;;;;;4973662;28;1983;-69
2022/04/04 03:40:13;;;;;;;;;;;;;;;;;;4982174;28;799;-69
2022/04/04 03:42:39;;;;;;;;;;;;;;;;;;4982003;28;862;-69
2022/04/04 03:45:04;;;;;;;;;;;;;;;;;;4980849;28;1425;-69
2022/04/04 03:47:30;;;;;;;;;;;;;;;;;;4981964;28;1437;-69
2022/04/04 03:49:55;;;;;;;;;;;;;;;;;;4981153;28;1705;-69
2022/04/04 03:52:20;;;;;;;;;;;;;;;;;;4978734;28;1279;-69
2022/04/04 03:54:46;;;;;;;;;;;;;;;;;;4981703;28;999;-69
2022/04/04 03:57:11;;;;;;;;;;;;;;;;;;4981541;28;1914;-69
2022/04/04 03:59:36;;;;;;;;;;;;;;;;;;4982063;28;792;-69
2022/04/04 04:02:01;;;;;;;;;;;;;;;;;;4982065;28;863;-69
2022/04/04 04:04:27;;;;;;;;;;;;;;;;;;4973041;28;1633;-69
2022/04/04 04:06:52;;;;;;;;;;;;;;;;;;4982474;28;1507;-70
2022/04/04 04:09:17;;;;;;;;;;;;;;;;;;4981497;28;1457;-69
2022/04/04 04:11:42;;;;;;;;;;;;;;;;;;4981733;28;843;-69
2022/04/04 04:14:08;;;;;;;;;;;;;;;;;;4981561;28;1349;-69
2022/04/04 04:16:33;;;;;;;;;;;;;;;;;;4981112;28;1503;-69
2022/04/04 04:18:58;;;;;;;;;;;;;;;;;;4976417;28;1959;-69
2022/04/04 04:21:24;;;;;;;;;;;;;;;;;;4978075;28;1091;-69
2022/04/04 04:23:49;;;;;;;;;;;;;;;;;;4972660;28;1453;-69
2022/04/04 04:26:15;;;;;;;;;;;;;;;;;;4981182;28;1248;-70
2022/04/04 04:28:41;;;;;;;;;;;;;;;;;;4981506;28;876;-69
2022/04/04 04:31:07;;;;;;;;;;;;;;;;;;4981442;28;834;-69
2022/04/04 04:33:32;;;;;;;;;;;;;;;;;;4987489;28;1568;-69
2022/04/04 04:35:58;;;;;;;;;;;;;;;;;;4982396;28;1415;-69
2022/04/04 04:38:23;;;;;;;;;;;;;;;;;;4981292;28;1894;-69
2022/04/04 04:40:48;;;;;;;;;;;;;;;;;;4981486;28;1508;-69
2022/04/04 04:43:14;;;;;;;;;;;;;;;;;;4981186;28;986;-70
2022/04/04 04:45:39;;;;;;;;;;;;;;;;;;4981202;28;1264;-70
2022/04/04 04:48:05;;;;;;;;;;;;;;;;;;4980569;28;1686;-70
2022/04/04 04:50:31;;;;;;;;;;;;;;;;;;4980638;28;1222;-70
2022/04/04 04:52:56;;;;;;;;;;;;;;;;;;4980914;28;1426;-69
2022/04/04 04:55:22;;;;;;;;;;;;;;;;;;4980882;28;1287;-69
2022/04/04 04:57:48;;;;;;;;;;;;;;;;;;4983304;28;1898;-68
2022/04/04 05:00:15;;;;;;;;;;;;;;;;;;4984573;28;919;-69
2022/04/04 05:02:40;;;;;;;;;;;;;;;;;;4991197;28;1462;-68
2022/04/04 05:05:06;;;;;;;;;;;;;;;;;;4977985;28;1192;-68
2022/04/04 05:07:31;;;;;;;;;;;;;;;;;;4984081;28;1173;-68
2022/04/04 05:09:56;;;;;;;;;;;;;;;;;;4985243;28;1396;-71
2022/04/04 05:12:22;;;;;;;;;;;;;;;;;;4983512;28;1526;-70
2022/04/04 05:14:48;;;;;;;;;;;;;;;;;;4983779;28;1324;-70
2022/04/04 05:17:13;;;;;;;;;;;;;;;;;;4982676;28;1898;-70
2022/04/04 05:19:38;;;;;;;;;;;;;;;;;;4983734;28;1232;-70
2022/04/04 05:22:04;;;;;;;;;;;;;;;;;;4983730;28;1281;-70
2022/04/04 05:24:29;;;;;;;;;;;;;;;;;;4983656;28;1249;-69
2022/04/04 05:26:56;;;;;;;;;;;;;;;;;;4983340;28;1220;-69
2022/04/04 05:29:21;;;;;;;;;;;;;;;;;;4983855;28;1154;-70
2022/04/04 05:31:46;;;;;;;;;;;;;;;;;;4982965;28;1321;-70
2022/04/04 05:34:11;;;;;;;;;;;;;;;;;;4983592;28;1284;-69
2022/04/04 05:36:36;;;;;;;;;;;;;;;;;;4983417;28;1232;-69
2022/04/04 05:39:03;;;;;;;;;;;;;;;;;;4983880;28;1944;-69
2022/04/04 05:41:28;;;;;;;;;;;;;;;;;;4983650;28;1339;-69
2022/04/04 05:43:53;;;;;;;;;;;;;;;;;;4982207;28;1583;-69
2022/04/04 05:46:18;;;;;;;;;;;;;;;;;;4975472;28;1261;-71
2022/04/04 05:48:44;;;;;;;;;;;;;;;;;;4984164;28;1137;-70
2022/04/04 05:51:10;;;;;;;;;;;;;;;;;;4990143;28;1369;-68
2022/04/04 05:53:36;;;;;;;;;;;;;;;;;;4974621;28;1713;-69
2022/04/04 05:56:02;;;;;;;;;;;;;;;;;;4984142;28;1533;-69
2022/04/04 05:58:27;;;;;;;;;;;;;;;;;;4980475;28;1978;-70
2022/04/04 06:00:53;;;;;;;;;;;;;;;;;;4984272;28;1809;-69
2022/04/04 06:03:21;;;;;;;;;;;;;;;;;;4984215;28;1257;-69
2022/04/04 06:05:49;;;;;;;;;;;;;;;;;;4985487;28;1335;-69
2022/04/04 06:08:14;;;;;;;;;;;;;;;;;;4983611;28;1260;-70
2022/04/04 06:10:39;;;;;;;;;;;;;;;;;;4981000;28;1277;-70
2022/04/04 06:13:05;;;;;;;;;;;;;;;;;;4975759;28;1634;-70
2022/04/04 06:15:30;;;;;;;;;;;;;;;;;;4986684;28;1267;-69
2022/04/04 06:17:55;;;;;;;;;;;;;;;;;;5000599;28;1902;-70
2022/04/04 06:20:21;;;;;;;;;;;;;;;;;;4988050;28;1681;-70
2022/04/04 06:22:46;;;;;;;;;;;;;;;;;;4981732;28;1214;-70
2022/04/04 06:25:15;;;;;;;;;;;;;;;;;;5002316;28;791;-70
2022/04/04 06:27:40;;;;;;;;;;;;;;;;;;4989278;28;1301;-70
2022/04/04 06:30:07;;;;;;;;;;;;;;;;;;4982790;28;1478;-70
2022/04/04 06:32:33;;;;;;;;;;;;;;;;;;4965576;28;1863;-70
2022/04/04 06:34:58;;;;;;;;;;;;;;;;;;4982608;28;889;-69
2022/04/04 06:37:23;;;;;;;;;;;;;;;;;;4982701;28;1906;-69
2022/04/04 06:39:48;;;;;;;;;;;;;;;;;;4982924;28;812;-70
2022/04/04 06:42:14;;;;;;;;;;;;;;;;;;4982955;28;907;-70
2022/04/04 06:44:39;;;;;;;;;;;;;;;;;;4982697;28;768;-70
2022/04/04 06:47:05;;;;;;;;;;;;;;;;;;4982571;28;1571;-70
2022/04/04 06:49:30;;;;;;;;;;;;;;;;;;4982785;28;867;-70
2022/04/04 06:51:56;;;;;;;;;;;;;;;;;;4982603;28;1497;-70
2022/04/04 06:54:21;;;;;;;;;;;;;;;;;;4982866;28;843;-70
2022/04/04 06:56:48;;;;;;;;;;;;;;;;;;4982440;28;1184;-70
2022/04/04 06:59:14;;;;;;;;;;;;;;;;;;4982747;28;1890;-70
2022/04/04 07:01:39;;;;;;;;;;;;;;;;;;4982682;28;859;-70
2022/04/04 07:04:05;;;;;;;;;;;;;;;;;;4982706;28;895;-70
2022/04/04 07:06:33;;;;;;;;;;;;;;;;;;4982196;28;1264;-70
2022/04/04 07:08:58;;;;;;;;;;;;;;;;;;4982421;28;1458;-70
2022/04/04 07:11:23;;;;;;;;;;;;;;;;;;4982737;28;796;-71
2022/04/04 07:13:49;;;;;;;;;;;;;;;;;;4982528;28;974;-70
2022/04/04 07:16:15;;;;;;;;;;;;;;;;;;4982308;28;1196;-70
2022/04/04 07:18:44;;;;;;;;;;;;;;;;;;4982568;28;1890;-70
2022/04/04 07:21:09;;;;;;;;;;;;;;;;;;4981248;28;815;-71
2022/04/04 07:23:35;;;;;;;;;;;;;;;;;;4982419;28;828;-70
2022/04/04 07:26:00;;;;;;;;;;;;;;;;;;4981778;28;1423;-70
2022/04/04 07:28:25;;;;;;;;;;;;;;;;;;4982246;28;899;-71
2022/04/04 07:30:52;;;;;;;;;;;;;;;;;;4982334;28;788;-70
2022/04/04 07:33:18;;;;;;;;;;;;;;;;;;4982450;28;839;-70
2022/04/04 07:35:43;;;;;;;;;;;;;;;;;;4981576;28;1426;-70
2022/04/04 07:38:09;;;;;;;;;;;;;;;;;;4982214;28;1890;-70
2022/04/04 07:40:34;;;;;;;;;;;;;;;;;;4982291;28;1537;-70
2022/04/04 07:43:00;;;;;;;;;;;;;;;;;;4982209;28;808;-70
2022/04/04 07:45:27;;;;;;;;;;;;;;;;;;4981853;28;1185;-71
2022/04/04 07:47:53;;;;;;;;;;;;;;;;;;4982050;28;819;-70
2022/04/04 07:50:18;;;;;;;;;;;;;;;;;;4981914;28;907;-70
2022/04/04 07:52:46;;;;;;;;;;;;;;;;;;4981905;28;823;-70
2022/04/04 07:55:15;;;;;;;;;;;;;;;;;;4981476;28;1342;-70
2022/04/04 07:57:40;;;;;;;;;;;;;;;;;;4981865;28;1878;-70
2022/04/04 08:00:07;;;;;;;;;;;;;;;;;;4981832;28;875;-70
2022/04/04 08:02:32;;;;;;;;;;;;;;;;;;4981846;28;811;-70
2022/04/04 08:04:58;;;;;;;;;;;;;;;;;;4981415;28;1048;-69
2022/04/04 08:07:23;;;;;;;;;;;;;;;;;;4981589;28;1260;-69
2022/04/04 08:09:48;;;;;;;;;;;;;;;;;;4981756;28;835;-70
2022/04/04 08:12:13;;;;;;;;;;;;;;;;;;4981717;28;1406;-70
2022/04/04 08:14:39;;;;;;;;;;;;;;;;;;4981802;28;914;-70
2022/04/04 08:17:04;;;;;;;;;;;;;;;;;;4981488;28;1165;-70
2022/04/04 08:19:30;;;;;;;;;;;;;;;;;;4981587;28;1906;-70
2022/04/04 08:21:55;;;;;;;;;;;;;;;;;;4981200;28;1493;-70
2022/04/04 08:24:22;;;;;;;;;;;;;;;;;;4981641;28;903;-71
2022/04/04 08:26:47;;;;;;;;;;;;;;;;;;4981147;28;1454;-71
2022/04/04 08:29:13;;;;;;;;;;;;;;;;;;4981459;28;866;-70
2022/04/04 08:31:39;;;;;;;;;;;;;;;;;;4981915;28;1446;-70
2022/04/04 08:34:04;;;;;;;;;;;;;;;;;;4985132;28;839;-70
2022/04/04 08:36:29;;;;;;;;;;;;;;;;;;4984300;28;1280;-70
2022/04/04 08:38:54;;;;;;;;;;;;;;;;;;4984860;28;1898;-71
2022/04/04 08:41:24;;;;;;;;;;;;;;;;;;4984886;28;855;-70
2022/04/04 08:43:49;;;;;;;;;;;;;;;;;;4984913;28;997;-71
2022/04/04 08:46:15;;;;;;;;;;;;;;;;;;4984249;28;1521;-70
2022/04/04 08:48:41;;;;;;;;;;;;;;;;;;4984705;28;796;-71
2022/04/04 08:51:09;;;;;;;;;;;;;;;;;;4984550;28;857;-71
2022/04/04 08:53:35;;;;;;;;;;;;;;;;;;4984826;28;922;-70
2022/04/04 08:56:01;;;;;;;;;;;;;;;;;;4984433;28;1196;-70
2022/04/04 08:58:26;;;;;;;;;;;;;;;;;;4984472;28;1902;-71
2022/04/04 09:00:52;;;;;;;;;;;;;;;;;;4984651;28;808;-71
2022/04/04 09:03:21;;;;;;;;;;;;;;;;;;4984505;28;791;-71
2022/04/04 09:05:51;;;;;;;;;;;;;;;;;;4984094;28;1184;-71
2022/04/04 09:08:18;;;;;;;;;;;;;;;;;;4984234;28;1438;-71
2022/04/04 09:10:44;;;;;;;;;;;;;;;;;;4984320;28;1458;-71
2022/04/04 09:13:10;;;;;;;;;;;;;;;;;;4984263;28;1557;-71
2022/04/04 09:15:53;;;;;;;;;;;;;;;;;;4983796;28;1422;-71
2022/04/04 09:18:19;;;;;;;;;;;;;;;;;;4984202;28;1898;-70
2022/04/04 09:20:48;;;;;;;;;;;;;;;;;;4983823;28;1473;-70
2022/04/04 09:23:13;;;;;;;;;;;;;;;;;;4983942;28;1494;-71
2022/04/04 09:25:39;;;;;;;;;;;;;;;;;;4983823;28;1287;-71
2022/04/04 09:28:17;;;;;;;;;;;;;;;;;;4984209;28;942;-71
2022/04/04 09:30:43;;;;;;;;;;;;;;;;;;4983825;28;1461;-71
2022/04/04 09:33:12;;;;;;;;;;;;;;;;;;4984311;28;811;-71
2022/04/04 09:35:45;;;;;;;;;;;;;;;;;;4983401;28;1172;-71
2022/04/04 09:38:14;;;;;;;;;;;;;;;;;;4983739;28;1971;-71
2022/04/04 09:40:39;;;;;;;;;;;;;;;;;;4983711;28;1465;-71
2022/04/04 09:43:04;;;;;;;;;;;;;;;;;;4981636;28;840;-71
2022/04/04 09:45:30;;;;;;;;;;;;;;;;;;4982957;28;1149;-70
2022/04/04 09:47:55;;;;;;;;;;;;;;;;;;4984020;28;854;-71
2022/04/04 09:50:36;;;;;;;;;;;;;;;;;;4982485;28;804;-70
2022/04/04 09:53:05;;;;;;;;;;;;;;;;;;4984179;28;832;-71
2022/04/04 09:55:32;;;;;;;;;;;;;;;;;;4983329;28;1301;-71
2022/04/04 09:57:58;;;;;;;;;;;;;;;;;;4967063;28;1899;-71
2022/04/04 10:00:24;;;;;;;;;;;;;;;;;;4982373;28;902;-71
2022/04/04 10:02:51;;;;;;;;;;;;;;;;;;4983523;28;936;-71
2022/04/04 10:05:17;;;;;;;;;;;;;;;;;;4983146;28;1434;-71
2022/04/04 10:07:42;;;;;;;;;;;;;;;;;;4983447;28;870;-71
2022/04/04 10:10:07;;;;;;;;;;;;;;;;;;4983210;28;1434;-71
2022/04/04 10:12:36;;;;;;;;;;;;;;;;;;4983323;28;1028;-71
2022/04/04 10:15:03;;;;;;;;;;;;;;;;;;4983041;28;1445;-71
2022/04/04 10:17:29;;;;;;;;;;;;;;;;;;4983157;28;1957;-71
2022/04/04 10:19:55;;;;;;;;;;;;;;;;;;4983347;28;910;-71
2022/04/04 10:22:20;;;;;;;;;;;;;;;;;;4983434;28;811;-71
2022/04/04 10:24:46;;;;;;;;;;;;;;;;;;4981797;28;1310;-71
2022/04/04 10:27:16;;;;;;;;;;;;;;;;;;4983147;28;1165;-70
2022/04/04 10:29:41;;;;;;;;;;;;;;;;;;4982984;28;1565;-71
2022/04/04 10:32:21;;;;;;;;;;;;;;;;;;4983014;28;1470;-71
2022/04/04 10:34:46;;;;;;;;;;;;;;;;;;4982910;28;792;-71
2022/04/04 10:37:19;;;;;;;;;;;;;;;;;;4982551;28;1268;-71
2022/04/04 10:39:47;;;;;;;;;;;;;;;;;;4982946;28;1898;-70
2022/04/04 10:42:43;;;;;;;;;;;;;;;;;;4983066;28;800;-72
2022/04/04 10:45:09;;;;;;;;;;;;;;;;;;4973057;28;1239;-70
2022/04/04 10:47:36;;;;;;;;;;;;;;;;;;4982601;28;1465;-70
2022/04/04 10:50:20;;;;;;;;;;;;;;;;;;4982724;28;1482;-70
2022/04/04 10:52:46;;;;;;;;;;;;;;;;;;4982750;28;1129;-70
2022/04/04 10:55:27;;;;;;;;;;;;;;;;;;4982179;28;1422;-70
2022/04/04 10:58:15;;;;;;;;;;;;;;;;;;4982833;28;1915;-71
2022/04/04 11:01:05;;;;;;;;;;;;;;;;;;4978748;28;1478;-71
2022/04/04 11:03:34;;;;;;;;;;;;;;;;;;4982692;28;839;-71
2022/04/04 11:08:58;;;;;;;;;;;;;;;;;;4982413;28;1446;-70
2022/04/04 11:11:39;;;;;;;;;;;;;;;;;;4982346;28;1410;-70
2022/04/04 11:14:05;;;;;;;;;;;;;;;;;;4965080;28;875;-70
2022/04/04 11:16:48;;;;;;;;;;;;;;;;;;4982159;28;1170;-70
2022/04/04 11:19:18;;;;;;;;;;;;;;;;;;4982231;28;1948;-71
2022/04/04 11:21:43;;;;;;;;;;;;;;;;;;4982381;28;847;-71
2022/04/04 11:24:09;;;;;;;;;;;;;;;;;;4982372;28;1473;-69
2022/04/04 11:26:35;;;;;;;;;;;;;;;;;;4982012;28;1169;-70
2022/04/04 11:29:01;;;;;;;;;;;;;;;;;;4982139;28;994;-71
2022/04/04 11:31:26;;;;;;;;;;;;;;;;;;4982174;28;863;-70
2022/04/04 11:33:52;;;;;;;;;;;;;;;;;;4982184;28;986;-69
2022/04/04 11:36:27;;;;;;;;;;;;;;;;;;4981604;28;1446;-69
2022/04/04 11:38:56;;;;;;;;;;;;;;;;;;4962657;28;1894;-69
2022/04/04 11:41:24;;;;;;;;;;;;;;;;;;4962995;28;820;-70
2022/04/04 11:43:52;;;;;;;;;;;;;;;;;;4962634;28;910;-70
2022/04/04 11:46:19;;;;;;;;;;;;;;;;;;4975204;28;1446;-70
2022/04/04 11:48:49;;;;;;;;;;;;;;;;;;4982128;28;847;-70
2022/04/04 11:51:14;;;;;;;;;;;;;;;;;;4965539;28;1450;-70
2022/04/04 11:53:39;;;;;;;;;;;;;;;;;;4982075;28;792;-70
2022/04/04 11:56:10;;;;;;;;;;;;;;;;;;4981760;28;1178;-71
2022/04/04 11:58:45;;;;;;;;;;;;;;;;;;4981500;28;1894;-70
2022/04/04 12:01:11;;;;;;;;;;;;;;;;;;4981765;28;898;-70
2022/04/04 12:03:43;;;;;;;;;;;;;;;;;;4981938;28;1057;-70
2022/04/04 12:06:08;;;;;;;;;;;;;;;;;;4982287;28;1433;-71
2022/04/04 12:08:42;;;;;;;;;;;;;;;;;;4988191;28;788;-69
2022/04/04 12:11:07;;;;;;;;;;;;;;;;;;4988093;28;827;-69
2022/04/04 12:13:32;;;;;;;;;;;;;;;;;;4988221;28;827;-70
2022/04/04 12:15:57;;;;;;;;;;;;;;;;;;4987768;28;1232;-70
2022/04/04 12:18:23;;;;;;;;;;;;;;;;;;4988077;28;1894;-70
2022/04/04 12:20:50;;;;;;;;;;;;;;;;;;4987843;28;1501;-71
2022/04/04 12:26:04;;;;;;;;;;;;;;;;;;4987876;28;1433;-70
2022/04/04 12:28:32;;;;;;;;;;;;;;;;;;4987741;28;1362;-69
2022/04/04 12:30:58;;;;;;;;;;;;;;;;;;4987936;28;1481;-69
2022/04/04 12:33:32;;;;;;;;;;;;;;;;;;4987963;28;1421;-69
2022/04/04 12:35:58;;;;;;;;;;;;;;;;;;4987209;28;1477;-69
2022/04/04 12:38:27;;;;;;;;;;;;;;;;;;4987873;28;1899;-70
2022/04/04 12:41:08;;;;;;;;;;;;;;;;;;4987746;28;1580;-70
2022/04/04 12:43:34;;;;;;;;;;;;;;;;;;4987679;28;812;-69
2022/04/04 12:45:59;;;;;;;;;;;;;;;;;;4987579;28;1213;-70
2022/04/04 12:48:35;;;;;;;;;;;;;;;;;;4987919;28;792;-71
2022/04/04 12:51:01;;;;;;;;;;;;;;;;;;4987692;28;1489;-69
2022/04/04 12:53:26;;;;;;;;;;;;;;;;;;4987717;28;780;-70
2022/04/04 12:56:06;;;;;;;;;;;;;;;;;;4987427;28;1196;-70
2022/04/04 12:58:32;;;;;;;;;;;;;;;;;;4987612;28;1882;-70
2022/04/04 13:01:08;;;;;;;;;;;;;;;;;;4987429;28;800;-70
2022/04/04 13:03:33;;;;;;;;;;;;;;;;;;4986431;28;1303;-70
2022/04/04 13:06:01;;;;;;;;;;;;;;;;;;4986989;28;1474;-69
2022/04/04 13:08:29;;;;;;;;;;;;;;;;;;4987700;28;807;-70
2022/04/04 13:11:02;;;;;;;;;;;;;;;;;;4987531;28;875;-70
2022/04/04 13:13:27;;;;;;;;;;;;;;;;;;4987400;28;1006;-70
2022/04/04 13:15:56;;;;;;;;;;;;;;;;;;4987135;28;1219;-70
2022/04/04 13:18:21;;;;;;;;;;;;;;;;;;4985766;28;1898;-70
2022/04/04 13:20:49;;;;;;;;;;;;;;;;;;4984037;28;792;-71
2022/04/04 13:23:14;;;;;;;;;;;;;;;;;;4983946;28;1544;-72
2022/04/04 13:25:40;;;;;;;;;;;;;;;;;;4983739;28;1553;-71
2022/04/04 13:28:11;;;;;;;;;;;;;;;;;;4983686;28;1457;-71
2022/04/04 13:30:37;;;;;;;;;;;;;;;;;;4983910;28;1541;-71
2022/04/04 13:33:02;;;;;;;;;;;;;;;;;;4984250;28;1472;-71
2022/04/04 13:35:27;;;;;;;;;;;;;;;;;;4983455;28;1542;-71
2022/04/04 13:37:52;;;;;;;;;;;;;;;;;;4983512;28;1906;-71
2022/04/04 13:40:18;;;;;;;;;;;;;;;;;;4983688;28;1469;-70
2022/04/04 13:42:43;;;;;;;;;;;;;;;;;;4983425;28;1592;-70
2022/04/04 13:45:09;;;;;;;;;;;;;;;;;;4983651;28;962;-71
2022/04/04 13:47:34;;;;;;;;;;;;;;;;;;4983621;28;1310;-71
2022/04/04 13:49:59;;;;;;;;;;;;;;;;;;4983836;28;926;-71
2022/04/04 13:52:25;;;;;;;;;;;;;;;;;;4983966;28;1024;-71
2022/04/04 13:54:51;;;;;;;;;;;;;;;;;;4983528;28;1489;-70
2022/04/04 13:57:16;;;;;;;;;;;;;;;;;;4983185;28;1239;-71
2022/04/04 13:59:41;;;;;;;;;;;;;;;;;;4983560;28;1902;-70
2022/04/04 14:02:07;;;;;;;;;;;;;;;;;;4983510;28;1053;-70
2022/04/04 14:04:35;;;;;;;;;;;;;;;;;;4983557;28;867;-70
2022/04/04 14:07:02;;;;;;;;;;;;;;;;;;4983276;28;1217;-70
2022/04/04 14:09:27;;;;;;;;;;;;;;;;;;4983289;28;823;-69
2022/04/04 14:11:52;;;;;;;;;;;;;;;;;;4983022;28;1519;-70
2022/04/04 14:14:17;;;;;;;;;;;;;;;;;;4983357;28;777;-70
2022/04/04 14:16:43;;;;;;;;;;;;;;;;;;4982920;28;1560;-71
2022/04/04 14:19:09;;;;;;;;;;;;;;;;;;4982858;28;1911;-71
2022/04/04 14:21:35;;;;;;;;;;;;;;;;;;4983260;28;991;-71
2022/04/04 14:24:00;;;;;;;;;;;;;;;;;;4983326;28;1145;-71
2022/04/04 14:26:25;;;;;;;;;;;;;;;;;;4982718;28;1181;-71
2022/04/04 14:28:50;;;;;;;;;;;;;;;;;;4982867;28;1433;-70
2022/04/04 14:31:15;;;;;;;;;;;;;;;;;;4982624;28;886;-70
2022/04/04 14:33:41;;;;;;;;;;;;;;;;;;4983206;28;761;-71
2022/04/04 14:36:06;;;;;;;;;;;;;;;;;;4982152;28;1521;-71
2022/04/04 14:38:37;;;;;;;;;;;;;;;;;;4983032;28;1903;-70
2022/04/04 14:41:03;;;;;;;;;;;;;;;;;;4982866;28;819;-71
2022/04/04 14:43:28;;;;;;;;;;;;;;;;;;4983133;28;791;-70
2022/04/04 14:45:53;;;;;;;;;;;;;;;;;;4982231;28;1486;-70
2022/04/04 14:48:19;;;;;;;;;;;;;;;;;;4982673;28;1454;-70
2022/04/04 14:50:44;;;;;;;;;;;;;;;;;;4982734;28;839;-70
2022/04/04 14:53:10;;;;;;;;;;;;;;;;;;4983062;28;831;-71
2022/04/04 14:55:35;;;;;;;;;;;;;;;;;;4982362;28;1259;-70
2022/04/04 14:58:01;;;;;;;;;;;;;;;;;;4982746;28;1895;-70
2022/04/04 15:00:26;;;;;;;;;;;;;;;;;;4982603;28;831;-68
2022/04/04 15:02:51;;;;;;;;;;;;;;;;;;4982491;28;1470;-69
2022/04/04 15:05:16;;;;;;;;;;;;;;;;;;4982427;28;1185;-69
2022/04/04 15:07:42;;;;;;;;;;;;;;;;;;4982560;28;1536;-70
2022/04/04 15:10:08;;;;;;;;;;;;;;;;;;4982366;28;812;-70
2022/04/04 15:12:34;;;;;;;;;;;;;;;;;;4982508;28;847;-69
2022/04/04 15:15:02;;;;;;;;;;;;;;;;;;4982478;28;840;-69
2022/04/04 15:17:27;;;;;;;;;;;;;;;;;;4982385;28;1253;-69
2022/04/04 15:19:53;;;;;;;;;;;;;;;;;;4965788;28;1898;-69
2022/04/04 15:22:18;;;;;;;;;;;;;;;;;;4982408;28;868;-70
2022/04/04 15:24:43;;;;;;;;;;;;;;;;;;4982180;28;911;-69
2022/04/04 15:27:08;;;;;;;;;;;;;;;;;;4982086;28;1193;-70
2022/04/04 15:29:34;;;;;;;;;;;;;;;;;;4982123;28;907;-70
2022/04/04 15:32:04;;;;;;;;;;;;;;;;;;4982358;28;796;-70
2022/04/04 15:34:29;;;;;;;;;;;;;;;;;;4982116;28;1010;-70
2022/04/04 15:36:55;;;;;;;;;;;;;;;;;;4981608;28;1505;-70
2022/04/04 15:39:20;;;;;;;;;;;;;;;;;;4982013;28;1946;-69
2022/04/04 15:41:45;;;;;;;;;;;;;;;;;;4981198;28;787;-68
2022/04/04 15:44:11;;;;;;;;;;;;;;;;;;4982209;28;787;-70
2022/04/04 15:46:37;;;;;;;;;;;;;;;;;;4981586;28;1177;-69
2022/04/04 15:49:03;;;;;;;;;;;;;;;;;;4982166;28;803;-69
2022/04/04 15:51:28;;;;;;;;;;;;;;;;;;4982038;28;875;-69
2022/04/04 15:53:55;;;;;;;;;;;;;;;;;;4981631;28;1426;-69
2022/04/04 15:56:20;;;;;;;;;;;;;;;;;;4981768;28;1292;-70
2022/04/04 15:58:46;;;;;;;;;;;;;;;;;;4981748;28;1895;-70
2022/04/04 16:01:11;;;;;;;;;;;;;;;;;;4981947;28;784;-70
2022/04/04 16:03:42;;;;;;;;;;;;;;;;;;4981858;28;805;-70
2022/04/04 16:06:08;;;;;;;;;;;;;;;;;;4984683;28;1267;-70
2022/04/04 16:08:33;;;;;;;;;;;;;;;;;;4983959;28;1470;-70
2022/04/04 16:10:58;;;;;;;;;;;;;;;;;;4980695;28;1388;-70
2022/04/04 16:13:23;;;;;;;;;;;;;;;;;;4981276;28;1229;-68
2022/04/04 16:15:48;;;;;;;;;;;;;;;;;;4980690;28;1376;-69
2022/04/04 16:18:14;;;;;;;;;;;;;;;;;;4965312;28;1899;-69
2022/04/04 16:20:39;;;;;;;;;;;;;;;;;;4977599;28;1421;-70
2022/04/04 16:23:04;;;;;;;;;;;;;;;;;;4984388;28;1504;-71
2022/04/04 16:25:30;;;;;;;;;;;;;;;;;;4984408;28;1470;-70
2022/04/04 16:27:55;;;;;;;;;;;;;;;;;;4987725;28;1389;-69
2022/04/04 16:30:20;;;;;;;;;;;;;;;;;;4986978;28;1230;-69
2022/04/04 16:32:45;;;;;;;;;;;;;;;;;;4980843;28;1258;-70
2022/04/04 16:35:11;;;;;;;;;;;;;;;;;;4974044;28;1368;-69
2022/04/04 16:37:39;;;;;;;;;;;;;;;;;;4976869;28;1224;-71
2022/04/04 16:40:05;;;;;;;;;;;;;;;;;;4974909;28;1961;-68
2022/04/04 16:42:30;;;;;;;;;;;;;;;;;;4981368;28;1490;-73
2022/04/04 16:44:58;;;;;;;;;;;;;;;;;;4971786;28;1455;-66
2022/04/04 16:47:23;;;;;;;;;;;;;;;;;;4980924;28;1513;-66
2022/04/04 16:49:48;;;;;;;;;;;;;;;;;;4981084;28;1150;-66
2022/04/04 16:52:14;;;;;;;;;;;;;;;;;;4981052;28;847;-65
2022/04/04 16:54:39;;;;;;;;;;;;;;;;;;4984653;28;1033;-65
2022/04/04 16:57:04;;;;;;;;;;;;;;;;;;4984252;28;1321;-67
2022/04/04 16:59:29;;;;;;;;;;;;;;;;;;4976979;28;1890;-65
2022/04/04 17:01:54;;;;;;;;;;;;;;;;;;4984384;28;1223;-65
2022/04/04 17:04:20;;;;;;;;;;;;;;;;;;4984520;28;808;-65
2022/04/04 17:06:45;;;;;;;;;;;;;;;;;;4980308;28;1314;-65
2022/04/04 17:09:12;;;;;;;;;;;;;;;;;;4983235;28;1358;-68
2022/04/04 17:11:38;;;;;;;;;;;;;;;;;;4980078;28;1246;-69